sensor_id;sensor_type;location;lat;lon;timestamp;P1;durP1;ratioP1;P2;durP2;ratioP2
74320;SDS011;62738;45.772;4.804;2023-03-14T00:00:51;1.55;;;0.50;;
74320;SDS011;62738;45.772;4.804;2023-03-14T00:03:18;1.65;;;0.60;;
74320;SDS011;62738;45.772;4.804;2023-03-14T00:05:45;1.30;;;0.70;;
74320;SDS011;62738;45.772;4.804;2023-03-14T00:08:11;2.08;;;0.57;;
74320;SDS011;62738;45.772;4.804;2023-03-14T00:10:38;0.73;;;0.50;;
74320;SDS011;62738;45.772;4.804;2023-03-14T00:13:06;1.90;;;0.50;;
74320;SDS011;62738;45.772;4.804;2023-03-14T00:15:33;1.65;;;0.60;;
74320;SDS011;62738;45.772;4.804;2023-03-14T00:18:00;0.80;;;0.50;;
74320;SDS011;62738;45.772;4.804;2023-03-14T00:20:27;2.20;;;0.80;;
74320;SDS011;62738;45.772;4.804;2023-03-14T00:22:54;1.02;;;0.47;;
74320;SDS011;62738;45.772;4.804;2023-03-14T00:25:20;1.77;;;0.52;;
74320;SDS011;62738;45.772;4.804;2023-03-14T00:27:49;0.90;;;0.50;;
74320;SDS011;62738;45.772;4.804;2023-03-14T00:30:16;1.02;;;0.50;;
74320;SDS011;62738;45.772;4.804;2023-03-14T00:32:43;1.58;;;0.52;;
74320;SDS011;62738;45.772;4.804;2023-03-14T00:35:10;1.73;;;0.57;;
74320;SDS011;62738;45.772;4.804;2023-03-14T00:37:37;0.93;;;0.40;;
74320;SDS011;62738;45.772;4.804;2023-03-14T00:40:03;1.48;;;0.40;;
74320;SDS011;62738;45.772;4.804;2023-03-14T00:42:32;0.82;;;0.40;;
74320;SDS011;62738;45.772;4.804;2023-03-14T00:44:59;1.23;;;0.40;;
74320;SDS011;62738;45.772;4.804;2023-03-14T00:47:26;0.98;;;0.40;;
74320;SDS011;62738;45.772;4.804;2023-03-14T00:49:52;2.70;;;0.38;;
74320;SDS011;62738;45.772;4.804;2023-03-14T00:52:19;1.70;;;0.50;;
74320;SDS011;62738;45.772;4.804;2023-03-14T00:54:46;0.90;;;0.35;;
74320;SDS011;62738;45.772;4.804;2023-03-14T00:57:12;1.17;;;0.40;;
74320;SDS011;62738;45.772;4.804;2023-03-14T00:59:39;2.30;;;0.40;;
74320;SDS011;62738;45.772;4.804;2023-03-14T01:02:05;2.05;;;0.50;;
74320;SDS011;62738;45.772;4.804;2023-03-14T01:04:32;0.93;;;0.40;;
74320;SDS011;62738;45.772;4.804;2023-03-14T01:06:59;0.73;;;0.40;;
74320;SDS011;62738;45.772;4.804;2023-03-14T01:09:25;1.92;;;0.35;;
74320;SDS011;62738;45.772;4.804;2023-03-14T01:11:52;2.17;;;0.45;;
74320;SDS011;62738;45.772;4.804;2023-03-14T01:14:19;1.13;;;0.40;;
74320;SDS011;62738;45.772;4.804;2023-03-14T01:16:45;2.03;;;0.60;;
74320;SDS011;62738;45.772;4.804;2023-03-14T01:19:12;0.80;;;0.35;;
74320;SDS011;62738;45.772;4.804;2023-03-14T01:21:39;2.70;;;0.47;;
74320;SDS011;62738;45.772;4.804;2023-03-14T01:24:05;0.73;;;0.30;;
74320;SDS011;62738;45.772;4.804;2023-03-14T01:26:33;1.05;;;0.40;;
74320;SDS011;62738;45.772;4.804;2023-03-14T01:29:00;1.48;;;0.30;;
74320;SDS011;62738;45.772;4.804;2023-03-14T01:31:27;2.83;;;0.50;;
74320;SDS011;62738;45.772;4.804;2023-03-14T01:33:54;1.63;;;0.50;;
74320;SDS011;62738;45.772;4.804;2023-03-14T01:36:21;2.70;;;0.52;;
74320;SDS011;62738;45.772;4.804;2023-03-14T01:38:47;1.83;;;0.43;;
74320;SDS011;62738;45.772;4.804;2023-03-14T01:41:15;0.75;;;0.20;;
74320;SDS011;62738;45.772;4.804;2023-03-14T01:43:44;0.85;;;0.35;;
74320;SDS011;62738;45.772;4.804;2023-03-14T01:51:19;2.65;;;0.40;;
74320;SDS011;62738;45.772;4.804;2023-03-14T01:54:16;1.00;;;0.40;;
74320;SDS011;62738;45.772;4.804;2023-03-14T01:56:48;0.45;;;0.30;;
74320;SDS011;62738;45.772;4.804;2023-03-14T01:59:19;1.42;;;0.40;;
74320;SDS011;62738;45.772;4.804;2023-03-14T02:01:46;0.75;;;0.45;;
74320;SDS011;62738;45.772;4.804;2023-03-14T02:04:15;1.45;;;0.60;;
74320;SDS011;62738;45.772;4.804;2023-03-14T02:09:16;1.17;;;0.73;;
74320;SDS011;62738;45.772;4.804;2023-03-14T02:11:43;2.72;;;0.52;;
74320;SDS011;62738;45.772;4.804;2023-03-14T02:14:12;1.25;;;0.52;;
74320;SDS011;62738;45.772;4.804;2023-03-14T02:16:47;1.90;;;0.63;;
74320;SDS011;62738;45.772;4.804;2023-03-14T02:19:14;1.77;;;0.50;;
74320;SDS011;62738;45.772;4.804;2023-03-14T02:21:54;1.63;;;0.60;;
74320;SDS011;62738;45.772;4.804;2023-03-14T02:24:31;1.73;;;0.70;;
74320;SDS011;62738;45.772;4.804;2023-03-14T02:29:40;1.65;;;0.73;;
74320;SDS011;62738;45.772;4.804;2023-03-14T02:32:21;1.02;;;0.60;;
74320;SDS011;62738;45.772;4.804;2023-03-14T02:34:54;1.95;;;0.55;;
74320;SDS011;62738;45.772;4.804;2023-03-14T02:37:24;2.35;;;0.60;;
74320;SDS011;62738;45.772;4.804;2023-03-14T02:39:55;2.67;;;0.80;;
74320;SDS011;62738;45.772;4.804;2023-03-14T02:42:22;1.65;;;1.02;;
74320;SDS011;62738;45.772;4.804;2023-03-14T02:44:52;1.35;;;0.55;;
74320;SDS011;62738;45.772;4.804;2023-03-14T02:47:22;2.10;;;0.70;;
74320;SDS011;62738;45.772;4.804;2023-03-14T02:49:55;2.45;;;0.50;;
74320;SDS011;62738;45.772;4.804;2023-03-14T02:52:27;3.22;;;0.80;;
74320;SDS011;62738;45.772;4.804;2023-03-14T02:54:53;2.92;;;0.70;;
74320;SDS011;62738;45.772;4.804;2023-03-14T02:57:20;1.48;;;0.50;;
74320;SDS011;62738;45.772;4.804;2023-03-14T02:59:47;2.97;;;0.88;;
74320;SDS011;62738;45.772;4.804;2023-03-14T03:02:13;1.73;;;0.60;;
74320;SDS011;62738;45.772;4.804;2023-03-14T03:04:40;0.90;;;0.43;;
74320;SDS011;62738;45.772;4.804;2023-03-14T03:07:07;2.67;;;0.60;;
74320;SDS011;62738;45.772;4.804;2023-03-14T03:09:33;1.42;;;0.50;;
74320;SDS011;62738;45.772;4.804;2023-03-14T03:12:00;1.77;;;0.55;;
74320;SDS011;62738;45.772;4.804;2023-03-14T03:14:26;1.67;;;0.60;;
74320;SDS011;62738;45.772;4.804;2023-03-14T03:16:53;1.17;;;0.40;;
74320;SDS011;62738;45.772;4.804;2023-03-14T03:19:20;3.13;;;0.40;;
74320;SDS011;62738;45.772;4.804;2023-03-14T03:21:47;2.00;;;0.47;;
74320;SDS011;62738;45.772;4.804;2023-03-14T03:24:14;1.88;;;0.50;;
74320;SDS011;62738;45.772;4.804;2023-03-14T03:26:41;1.42;;;0.50;;
74320;SDS011;62738;45.772;4.804;2023-03-14T03:29:07;1.52;;;0.50;;
74320;SDS011;62738;45.772;4.804;2023-03-14T03:31:36;2.45;;;0.50;;
74320;SDS011;62738;45.772;4.804;2023-03-14T03:34:03;1.25;;;0.40;;
74320;SDS011;62738;45.772;4.804;2023-03-14T03:36:30;3.60;;;0.60;;
74320;SDS011;62738;45.772;4.804;2023-03-14T03:38:57;5.45;;;0.65;;
74320;SDS011;62738;45.772;4.804;2023-03-14T03:41:24;2.70;;;0.90;;
74320;SDS011;62738;45.772;4.804;2023-03-14T03:43:51;2.00;;;0.40;;
74320;SDS011;62738;45.772;4.804;2023-03-14T03:46:17;0.55;;;0.30;;
74320;SDS011;62738;45.772;4.804;2023-03-14T03:48:44;1.60;;;0.52;;
74320;SDS011;62738;45.772;4.804;2023-03-14T03:51:14;1.67;;;0.50;;
74320;SDS011;62738;45.772;4.804;2023-03-14T03:56:08;3.85;;;0.45;;
74320;SDS011;62738;45.772;4.804;2023-03-14T03:58:36;3.42;;;0.60;;
74320;SDS011;62738;45.772;4.804;2023-03-14T04:01:05;2.78;;;0.50;;
74320;SDS011;62738;45.772;4.804;2023-03-14T04:03:35;1.27;;;0.28;;
74320;SDS011;62738;45.772;4.804;2023-03-14T04:06:06;1.05;;;0.35;;
74320;SDS011;62738;45.772;4.804;2023-03-14T04:08:34;2.95;;;0.32;;
74320;SDS011;62738;45.772;4.804;2023-03-14T04:11:02;2.15;;;0.50;;
74320;SDS011;62738;45.772;4.804;2023-03-14T04:13:29;1.77;;;0.45;;
74320;SDS011;62738;45.772;4.804;2023-03-14T04:15:56;3.90;;;0.52;;
74320;SDS011;62738;45.772;4.804;2023-03-14T04:18:23;4.35;;;0.57;;
74320;SDS011;62738;45.772;4.804;2023-03-14T04:20:56;3.40;;;0.45;;
74320;SDS011;62738;45.772;4.804;2023-03-14T04:23:24;1.73;;;0.40;;
74320;SDS011;62738;45.772;4.804;2023-03-14T04:25:51;3.55;;;0.57;;
74320;SDS011;62738;45.772;4.804;2023-03-14T04:28:18;4.03;;;0.80;;
74320;SDS011;62738;45.772;4.804;2023-03-14T04:30:45;3.17;;;0.60;;
74320;SDS011;62738;45.772;4.804;2023-03-14T04:33:12;3.95;;;0.52;;
74320;SDS011;62738;45.772;4.804;2023-03-14T04:35:44;0.90;;;0.40;;
74320;SDS011;62738;45.772;4.804;2023-03-14T04:38:11;2.80;;;0.50;;
74320;SDS011;62738;45.772;4.804;2023-03-14T04:40:39;4.32;;;0.60;;
74320;SDS011;62738;45.772;4.804;2023-03-14T04:43:07;1.70;;;0.40;;
74320;SDS011;62738;45.772;4.804;2023-03-14T04:45:36;5.88;;;0.80;;
74320;SDS011;62738;45.772;4.804;2023-03-14T04:48:03;2.72;;;0.50;;
74320;SDS011;62738;45.772;4.804;2023-03-14T04:50:30;5.07;;;0.88;;
74320;SDS011;62738;45.772;4.804;2023-03-14T04:52:57;2.53;;;0.45;;
74320;SDS011;62738;45.772;4.804;2023-03-14T04:55:23;4.32;;;0.63;;
74320;SDS011;62738;45.772;4.804;2023-03-14T04:57:50;3.80;;;0.50;;
74320;SDS011;62738;45.772;4.804;2023-03-14T05:00:17;2.45;;;0.45;;
74320;SDS011;62738;45.772;4.804;2023-03-14T05:02:44;3.60;;;0.60;;
74320;SDS011;62738;45.772;4.804;2023-03-14T05:05:12;3.05;;;0.60;;
74320;SDS011;62738;45.772;4.804;2023-03-14T05:07:38;2.25;;;0.50;;
74320;SDS011;62738;45.772;4.804;2023-03-14T05:10:05;4.05;;;0.73;;
74320;SDS011;62738;45.772;4.804;2023-03-14T05:12:31;1.45;;;0.50;;
74320;SDS011;62738;45.772;4.804;2023-03-14T05:14:58;3.78;;;0.60;;
74320;SDS011;62738;45.772;4.804;2023-03-14T05:17:25;3.95;;;0.77;;
74320;SDS011;62738;45.772;4.804;2023-03-14T05:19:51;2.88;;;0.60;;
74320;SDS011;62738;45.772;4.804;2023-03-14T05:22:18;2.40;;;0.50;;
74320;SDS011;62738;45.772;4.804;2023-03-14T05:24:44;2.65;;;0.52;;
74320;SDS011;62738;45.772;4.804;2023-03-14T05:27:11;2.83;;;0.50;;
74320;SDS011;62738;45.772;4.804;2023-03-14T05:29:38;2.28;;;0.57;;
74320;SDS011;62738;45.772;4.804;2023-03-14T05:32:04;1.83;;;0.55;;
74320;SDS011;62738;45.772;4.804;2023-03-14T05:34:31;2.47;;;0.57;;
74320;SDS011;62738;45.772;4.804;2023-03-14T05:36:58;2.75;;;0.52;;
74320;SDS011;62738;45.772;4.804;2023-03-14T05:39:25;3.97;;;0.60;;
74320;SDS011;62738;45.772;4.804;2023-03-14T05:41:51;0.95;;;0.30;;
74320;SDS011;62738;45.772;4.804;2023-03-14T05:44:20;4.07;;;0.57;;
74320;SDS011;62738;45.772;4.804;2023-03-14T05:46:46;2.85;;;0.50;;
74320;SDS011;62738;45.772;4.804;2023-03-14T05:49:13;3.85;;;0.50;;
74320;SDS011;62738;45.772;4.804;2023-03-14T05:51:40;2.92;;;0.50;;
74320;SDS011;62738;45.772;4.804;2023-03-14T05:54:06;2.80;;;0.50;;
74320;SDS011;62738;45.772;4.804;2023-03-14T05:56:33;4.68;;;1.08;;
74320;SDS011;62738;45.772;4.804;2023-03-14T05:58:59;1.88;;;0.60;;
74320;SDS011;62738;45.772;4.804;2023-03-14T06:01:28;2.95;;;0.60;;
74320;SDS011;62738;45.772;4.804;2023-03-14T06:03:56;3.00;;;0.57;;
74320;SDS011;62738;45.772;4.804;2023-03-14T06:06:22;3.28;;;0.68;;
74320;SDS011;62738;45.772;4.804;2023-03-14T06:08:49;2.42;;;0.77;;
74320;SDS011;62738;45.772;4.804;2023-03-14T06:11:16;5.72;;;0.70;;
74320;SDS011;62738;45.772;4.804;2023-03-14T06:13:42;2.85;;;1.00;;
74320;SDS011;62738;45.772;4.804;2023-03-14T06:16:09;3.28;;;0.82;;
74320;SDS011;62738;45.772;4.804;2023-03-14T06:18:36;5.25;;;0.70;;
74320;SDS011;62738;45.772;4.804;2023-03-14T06:21:03;2.97;;;0.68;;
74320;SDS011;62738;45.772;4.804;2023-03-14T06:23:29;2.63;;;0.50;;
74320;SDS011;62738;45.772;4.804;2023-03-14T06:25:58;4.30;;;0.93;;
74320;SDS011;62738;45.772;4.804;2023-03-14T06:28:24;1.90;;;0.50;;
74320;SDS011;62738;45.772;4.804;2023-03-14T06:30:51;4.15;;;0.60;;
74320;SDS011;62738;45.772;4.804;2023-03-14T06:33:18;2.45;;;0.70;;
74320;SDS011;62738;45.772;4.804;2023-03-14T06:35:45;2.25;;;0.73;;
74320;SDS011;62738;45.772;4.804;2023-03-14T06:38:11;4.15;;;0.60;;
74320;SDS011;62738;45.772;4.804;2023-03-14T06:40:38;3.53;;;0.70;;
74320;SDS011;62738;45.772;4.804;2023-03-14T06:43:05;5.22;;;1.00;;
74320;SDS011;62738;45.772;4.804;2023-03-14T06:45:32;5.22;;;0.80;;
74320;SDS011;62738;45.772;4.804;2023-03-14T06:47:58;4.63;;;1.00;;
74320;SDS011;62738;45.772;4.804;2023-03-14T06:50:25;1.98;;;0.70;;
74320;SDS011;62738;45.772;4.804;2023-03-14T06:52:52;3.72;;;0.90;;
74320;SDS011;62738;45.772;4.804;2023-03-14T06:55:18;4.85;;;0.90;;
74320;SDS011;62738;45.772;4.804;2023-03-14T06:57:47;3.03;;;0.68;;
74320;SDS011;62738;45.772;4.804;2023-03-14T07:00:14;3.45;;;0.70;;
74320;SDS011;62738;45.772;4.804;2023-03-14T07:02:41;2.60;;;0.55;;
74320;SDS011;62738;45.772;4.804;2023-03-14T07:05:09;2.03;;;0.80;;
74320;SDS011;62738;45.772;4.804;2023-03-14T07:07:38;3.08;;;0.70;;
74320;SDS011;62738;45.772;4.804;2023-03-14T07:10:05;1.25;;;0.60;;
74320;SDS011;62738;45.772;4.804;2023-03-14T07:12:33;2.15;;;0.40;;
74320;SDS011;62738;45.772;4.804;2023-03-14T07:14:59;1.00;;;0.40;;
74320;SDS011;62738;45.772;4.804;2023-03-14T07:17:43;3.72;;;0.60;;
74320;SDS011;62738;45.772;4.804;2023-03-14T07:20:10;2.00;;;0.68;;
74320;SDS011;62738;45.772;4.804;2023-03-14T07:22:37;1.35;;;0.40;;
74320;SDS011;62738;45.772;4.804;2023-03-14T07:25:03;2.90;;;0.68;;
74320;SDS011;62738;45.772;4.804;2023-03-14T07:27:30;1.27;;;0.52;;
74320;SDS011;62738;45.772;4.804;2023-03-14T07:29:57;5.10;;;0.50;;
74320;SDS011;62738;45.772;4.804;2023-03-14T07:32:23;3.47;;;0.60;;
74320;SDS011;62738;45.772;4.804;2023-03-14T07:34:50;4.40;;;1.13;;
74320;SDS011;62738;45.772;4.804;2023-03-14T07:37:17;2.60;;;0.90;;
74320;SDS011;62738;45.772;4.804;2023-03-14T07:39:43;2.88;;;1.17;;
74320;SDS011;62738;45.772;4.804;2023-03-14T07:42:10;2.90;;;1.00;;
74320;SDS011;62738;45.772;4.804;2023-03-14T07:44:37;3.10;;;0.73;;
74320;SDS011;62738;45.772;4.804;2023-03-14T07:47:04;1.77;;;0.82;;
74320;SDS011;62738;45.772;4.804;2023-03-14T07:49:31;2.35;;;0.60;;
74320;SDS011;62738;45.772;4.804;2023-03-14T07:51:57;5.15;;;0.70;;
74320;SDS011;62738;45.772;4.804;2023-03-14T07:54:25;2.90;;;1.00;;
74320;SDS011;62738;45.772;4.804;2023-03-14T07:56:51;2.35;;;0.60;;
74320;SDS011;62738;45.772;4.804;2023-03-14T07:59:18;1.15;;;0.47;;
74320;SDS011;62738;45.772;4.804;2023-03-14T08:01:45;2.35;;;0.55;;
74320;SDS011;62738;45.772;4.804;2023-03-14T08:04:12;2.50;;;0.73;;
74320;SDS011;62738;45.772;4.804;2023-03-14T08:06:38;0.73;;;0.35;;
74320;SDS011;62738;45.772;4.804;2023-03-14T08:09:05;1.05;;;0.47;;
74320;SDS011;62738;45.772;4.804;2023-03-14T08:11:31;0.90;;;0.50;;
74320;SDS011;62738;45.772;4.804;2023-03-14T08:13:58;1.00;;;0.43;;
74320;SDS011;62738;45.772;4.804;2023-03-14T08:16:25;0.22;;;0.22;;
74320;SDS011;62738;45.772;4.804;2023-03-14T08:18:51;2.13;;;0.40;;
74320;SDS011;62738;45.772;4.804;2023-03-14T08:21:18;3.00;;;0.38;;
74320;SDS011;62738;45.772;4.804;2023-03-14T08:23:44;2.30;;;0.30;;
74320;SDS011;62738;45.772;4.804;2023-03-14T08:26:11;1.45;;;0.20;;
74320;SDS011;62738;45.772;4.804;2023-03-14T08:28:38;1.55;;;0.22;;
74320;SDS011;62738;45.772;4.804;2023-03-14T08:31:04;0.75;;;0.20;;
74320;SDS011;62738;45.772;4.804;2023-03-14T08:33:31;1.25;;;0.40;;
74320;SDS011;62738;45.772;4.804;2023-03-14T08:35:58;1.20;;;0.20;;
74320;SDS011;62738;45.772;4.804;2023-03-14T08:38:26;3.10;;;0.43;;
74320;SDS011;62738;45.772;4.804;2023-03-14T08:40:57;2.97;;;0.40;;
74320;SDS011;62738;45.772;4.804;2023-03-14T08:43:26;1.60;;;0.40;;
74320;SDS011;62738;45.772;4.804;2023-03-14T08:45:53;2.05;;;0.40;;
74320;SDS011;62738;45.772;4.804;2023-03-14T08:48:23;2.05;;;0.40;;
74320;SDS011;62738;45.772;4.804;2023-03-14T08:50:49;0.90;;;0.32;;
74320;SDS011;62738;45.772;4.804;2023-03-14T08:53:16;3.20;;;0.45;;
74320;SDS011;62738;45.772;4.804;2023-03-14T08:55:43;1.58;;;0.40;;
74320;SDS011;62738;45.772;4.804;2023-03-14T08:58:09;1.73;;;0.40;;
74320;SDS011;62738;45.772;4.804;2023-03-14T09:00:36;3.20;;;0.50;;
74320;SDS011;62738;45.772;4.804;2023-03-14T09:03:02;4.10;;;0.70;;
74320;SDS011;62738;45.772;4.804;2023-03-14T09:05:32;6.40;;;0.90;;
74320;SDS011;62738;45.772;4.804;2023-03-14T09:07:59;7.43;;;0.60;;
74320;SDS011;62738;45.772;4.804;2023-03-14T09:10:26;3.42;;;0.65;;
74320;SDS011;62738;45.772;4.804;2023-03-14T09:12:53;2.72;;;0.60;;
74320;SDS011;62738;45.772;4.804;2023-03-14T09:15:19;7.20;;;1.05;;
74320;SDS011;62738;45.772;4.804;2023-03-14T09:17:46;5.43;;;0.85;;
74320;SDS011;62738;45.772;4.804;2023-03-14T09:20:13;2.72;;;0.50;;
74320;SDS011;62738;45.772;4.804;2023-03-14T09:22:40;6.35;;;0.70;;
74320;SDS011;62738;45.772;4.804;2023-03-14T09:25:07;4.38;;;0.70;;
74320;SDS011;62738;45.772;4.804;2023-03-14T09:27:34;3.17;;;0.77;;
74320;SDS011;62738;45.772;4.804;2023-03-14T09:30:01;0.95;;;0.32;;
74320;SDS011;62738;45.772;4.804;2023-03-14T09:32:29;4.57;;;0.30;;
74320;SDS011;62738;45.772;4.804;2023-03-14T09:34:58;2.28;;;0.30;;
74320;SDS011;62738;45.772;4.804;2023-03-14T09:37:24;2.70;;;0.30;;
74320;SDS011;62738;45.772;4.804;2023-03-14T09:39:51;2.10;;;0.30;;
74320;SDS011;62738;45.772;4.804;2023-03-14T09:42:18;2.88;;;0.30;;
74320;SDS011;62738;45.772;4.804;2023-03-14T09:44:56;1.48;;;0.30;;
74320;SDS011;62738;45.772;4.804;2023-03-14T09:47:26;0.98;;;0.32;;
74320;SDS011;62738;45.772;4.804;2023-03-14T09:49:53;1.38;;;0.20;;
74320;SDS011;62738;45.772;4.804;2023-03-14T09:52:38;1.10;;;0.40;;
74320;SDS011;62738;45.772;4.804;2023-03-14T09:55:18;2.40;;;0.45;;
74320;SDS011;62738;45.772;4.804;2023-03-14T09:57:48;1.13;;;0.30;;
74320;SDS011;62738;45.772;4.804;2023-03-14T10:00:17;3.70;;;0.40;;
74320;SDS011;62738;45.772;4.804;2023-03-14T10:02:54;3.47;;;0.50;;
74320;SDS011;62738;45.772;4.804;2023-03-14T10:05:24;2.42;;;0.32;;
74320;SDS011;62738;45.772;4.804;2023-03-14T10:07:51;2.05;;;0.20;;
74320;SDS011;62738;45.772;4.804;2023-03-14T10:10:19;2.22;;;0.40;;
74320;SDS011;62738;45.772;4.804;2023-03-14T10:12:52;1.88;;;0.40;;
74320;SDS011;62738;45.772;4.804;2023-03-14T10:15:24;4.22;;;0.50;;
74320;SDS011;62738;45.772;4.804;2023-03-14T10:17:55;2.83;;;0.60;;
74320;SDS011;62738;45.772;4.804;2023-03-14T10:20:27;3.05;;;0.50;;
74320;SDS011;62738;45.772;4.804;2023-03-14T10:25:41;3.75;;;0.70;;
74320;SDS011;62738;45.772;4.804;2023-03-14T10:28:26;5.20;;;1.00;;
74320;SDS011;62738;45.772;4.804;2023-03-14T10:30:54;3.42;;;0.88;;
74320;SDS011;62738;45.772;4.804;2023-03-14T10:33:29;3.25;;;0.60;;
74320;SDS011;62738;45.772;4.804;2023-03-14T10:38:33;1.70;;;0.73;;
74320;SDS011;62738;45.772;4.804;2023-03-14T10:41:01;3.63;;;0.65;;
74320;SDS011;62738;45.772;4.804;2023-03-14T10:43:40;4.60;;;0.95;;
74320;SDS011;62738;45.772;4.804;2023-03-14T10:46:17;5.30;;;0.63;;
74320;SDS011;62738;45.772;4.804;2023-03-14T10:48:45;6.07;;;0.90;;
74320;SDS011;62738;45.772;4.804;2023-03-14T10:51:29;3.78;;;0.80;;
74320;SDS011;62738;45.772;4.804;2023-03-14T10:54:03;3.25;;;0.73;;
74320;SDS011;62738;45.772;4.804;2023-03-14T10:56:39;5.28;;;0.98;;
74320;SDS011;62738;45.772;4.804;2023-03-14T10:59:12;4.15;;;0.90;;
74320;SDS011;62738;45.772;4.804;2023-03-14T11:01:47;5.22;;;0.90;;
74320;SDS011;62738;45.772;4.804;2023-03-14T11:07:27;7.68;;;1.10;;
74320;SDS011;62738;45.772;4.804;2023-03-14T11:10:19;6.07;;;1.08;;
74320;SDS011;62738;45.772;4.804;2023-03-14T11:15:51;4.45;;;1.13;;
74320;SDS011;62738;45.772;4.804;2023-03-14T11:18:43;6.00;;;1.02;;
74320;SDS011;62738;45.772;4.804;2023-03-14T11:21:32;6.25;;;1.00;;
74320;SDS011;62738;45.772;4.804;2023-03-14T11:29:39;3.95;;;0.80;;
74320;SDS011;62738;45.772;4.804;2023-03-14T11:32:10;4.03;;;0.80;;
74320;SDS011;62738;45.772;4.804;2023-03-14T11:34:49;3.50;;;0.50;;
74320;SDS011;62738;45.772;4.804;2023-03-14T11:37:34;4.28;;;0.90;;
74320;SDS011;62738;45.772;4.804;2023-03-14T11:43:25;4.90;;;0.80;;
74320;SDS011;62738;45.772;4.804;2023-03-14T11:46:01;4.43;;;0.82;;
74320;SDS011;62738;45.772;4.804;2023-03-14T11:51:29;2.53;;;0.90;;
74320;SDS011;62738;45.772;4.804;2023-03-14T11:54:02;3.70;;;0.85;;
74320;SDS011;62738;45.772;4.804;2023-03-14T11:56:39;4.70;;;1.10;;
74320;SDS011;62738;45.772;4.804;2023-03-14T12:04:51;2.90;;;1.02;;
74320;SDS011;62738;45.772;4.804;2023-03-14T12:13:07;9.32;;;1.15;;
74320;SDS011;62738;45.772;4.804;2023-03-14T12:15:40;8.60;;;1.42;;
74320;SDS011;62738;45.772;4.804;2023-03-14T12:18:25;4.00;;;0.85;;
74320;SDS011;62738;45.772;4.804;2023-03-14T12:20:55;5.88;;;1.00;;
74320;SDS011;62738;45.772;4.804;2023-03-14T12:23:24;5.10;;;0.98;;
74320;SDS011;62738;45.772;4.804;2023-03-14T12:26:43;4.90;;;1.10;;
74320;SDS011;62738;45.772;4.804;2023-03-14T12:28:50;4.38;;;0.93;;
74320;SDS011;62738;45.772;4.804;2023-03-14T12:42:13;4.45;;;1.40;;
74320;SDS011;62738;45.772;4.804;2023-03-14T12:44:42;6.43;;;0.80;;
74320;SDS011;62738;45.772;4.804;2023-03-14T12:49:48;4.03;;;1.00;;
74320;SDS011;62738;45.772;4.804;2023-03-14T12:52:16;4.30;;;1.05;;
74320;SDS011;62738;45.772;4.804;2023-03-14T12:57:33;4.97;;;1.02;;
74320;SDS011;62738;45.772;4.804;2023-03-14T13:00:19;6.15;;;1.33;;
74320;SDS011;62738;45.772;4.804;2023-03-14T13:02:48;7.32;;;1.20;;
74320;SDS011;62738;45.772;4.804;2023-03-14T13:05:19;6.97;;;1.08;;
74320;SDS011;62738;45.772;4.804;2023-03-14T13:10:27;4.25;;;0.90;;
74320;SDS011;62738;45.772;4.804;2023-03-14T13:15:57;5.88;;;0.90;;
74320;SDS011;62738;45.772;4.804;2023-03-14T13:18:36;5.57;;;0.80;;
74320;SDS011;62738;45.772;4.804;2023-03-14T13:21:15;4.97;;;0.73;;
74320;SDS011;62738;45.772;4.804;2023-03-14T13:28:50;4.57;;;0.60;;
74320;SDS011;62738;45.772;4.804;2023-03-14T13:31:26;4.95;;;0.82;;
74320;SDS011;62738;45.772;4.804;2023-03-14T13:34:00;3.25;;;0.90;;
74320;SDS011;62738;45.772;4.804;2023-03-14T13:36:28;6.82;;;1.45;;
74320;SDS011;62738;45.772;4.804;2023-03-14T13:38:58;6.93;;;1.35;;
74320;SDS011;62738;45.772;4.804;2023-03-14T13:41:26;4.53;;;0.98;;
74320;SDS011;62738;45.772;4.804;2023-03-14T13:43:58;3.50;;;0.80;;
74320;SDS011;62738;45.772;4.804;2023-03-14T13:46:29;2.47;;;0.70;;
74320;SDS011;62738;45.772;4.804;2023-03-14T13:49:00;6.72;;;1.35;;
74320;SDS011;62738;45.772;4.804;2023-03-14T13:51:29;5.03;;;1.15;;
74320;SDS011;62738;45.772;4.804;2023-03-14T13:53:59;6.35;;;1.00;;
74320;SDS011;62738;45.772;4.804;2023-03-14T13:56:27;6.03;;;0.82;;
74320;SDS011;62738;45.772;4.804;2023-03-14T13:58:55;4.35;;;0.90;;
74320;SDS011;62738;45.772;4.804;2023-03-14T14:01:23;4.90;;;1.05;;
74320;SDS011;62738;45.772;4.804;2023-03-14T14:03:52;4.80;;;1.30;;
74320;SDS011;62738;45.772;4.804;2023-03-14T14:06:28;4.15;;;1.15;;
74320;SDS011;62738;45.772;4.804;2023-03-14T14:08:59;4.35;;;1.05;;
74320;SDS011;62738;45.772;4.804;2023-03-14T14:14:37;3.55;;;0.68;;
74320;SDS011;62738;45.772;4.804;2023-03-14T14:17:11;4.07;;;0.90;;
74320;SDS011;62738;45.772;4.804;2023-03-14T14:19:42;3.92;;;0.73;;
74320;SDS011;62738;45.772;4.804;2023-03-14T14:22:10;3.67;;;0.80;;
74320;SDS011;62738;45.772;4.804;2023-03-14T14:24:37;5.75;;;1.00;;
74320;SDS011;62738;45.772;4.804;2023-03-14T14:27:15;7.80;;;1.05;;
74320;SDS011;62738;45.772;4.804;2023-03-14T14:30:04;5.05;;;1.23;;
74320;SDS011;62738;45.772;4.804;2023-03-14T14:32:51;5.35;;;1.00;;
74320;SDS011;62738;45.772;4.804;2023-03-14T14:35:36;4.28;;;0.93;;
74320;SDS011;62738;45.772;4.804;2023-03-14T14:38:08;4.85;;;0.90;;
74320;SDS011;62738;45.772;4.804;2023-03-14T14:40:43;4.57;;;1.00;;
74320;SDS011;62738;45.772;4.804;2023-03-14T14:43:14;4.15;;;1.08;;
74320;SDS011;62738;45.772;4.804;2023-03-14T14:45:44;3.60;;;0.77;;
74320;SDS011;62738;45.772;4.804;2023-03-14T14:48:13;3.20;;;0.80;;
74320;SDS011;62738;45.772;4.804;2023-03-14T14:53:21;3.60;;;0.77;;
74320;SDS011;62738;45.772;4.804;2023-03-14T14:56:16;5.72;;;1.10;;
74320;SDS011;62738;45.772;4.804;2023-03-14T14:58:55;5.15;;;0.73;;
74320;SDS011;62738;45.772;4.804;2023-03-14T15:01:26;3.33;;;0.73;;
74320;SDS011;62738;45.772;4.804;2023-03-14T15:03:59;5.53;;;0.90;;
74320;SDS011;62738;45.772;4.804;2023-03-14T15:06:27;5.18;;;0.80;;
74320;SDS011;62738;45.772;4.804;2023-03-14T15:08:55;3.97;;;0.80;;
74320;SDS011;62738;45.772;4.804;2023-03-14T15:11:23;4.22;;;0.70;;
74320;SDS011;62738;45.772;4.804;2023-03-14T15:13:51;3.72;;;0.90;;
74320;SDS011;62738;45.772;4.804;2023-03-14T15:16:22;2.55;;;0.80;;
74320;SDS011;62738;45.772;4.804;2023-03-14T15:18:54;4.22;;;0.80;;
74320;SDS011;62738;45.772;4.804;2023-03-14T15:21:23;5.80;;;0.90;;
74320;SDS011;62738;45.772;4.804;2023-03-14T15:23:51;3.78;;;0.70;;
74320;SDS011;62738;45.772;4.804;2023-03-14T15:26:19;4.30;;;0.73;;
74320;SDS011;62738;45.772;4.804;2023-03-14T15:28:47;5.82;;;1.33;;
74320;SDS011;62738;45.772;4.804;2023-03-14T15:31:15;5.93;;;0.90;;
74320;SDS011;62738;45.772;4.804;2023-03-14T15:33:44;3.88;;;0.80;;
74320;SDS011;62738;45.772;4.804;2023-03-14T15:36:24;3.40;;;0.80;;
74320;SDS011;62738;45.772;4.804;2023-03-14T15:38:54;4.53;;;0.47;;
74320;SDS011;62738;45.772;4.804;2023-03-14T15:41:22;4.45;;;0.80;;
74320;SDS011;62738;45.772;4.804;2023-03-14T15:43:49;5.35;;;1.13;;
74320;SDS011;62738;45.772;4.804;2023-03-14T15:46:16;3.38;;;0.73;;
74320;SDS011;62738;45.772;4.804;2023-03-14T15:48:48;5.07;;;1.00;;
74320;SDS011;62738;45.772;4.804;2023-03-14T15:51:16;6.60;;;1.20;;
74320;SDS011;62738;45.772;4.804;2023-03-14T15:53:43;3.03;;;0.60;;
74320;SDS011;62738;45.772;4.804;2023-03-14T15:56:12;3.45;;;0.80;;
74320;SDS011;62738;45.772;4.804;2023-03-14T15:58:40;4.05;;;1.00;;
74320;SDS011;62738;45.772;4.804;2023-03-14T16:01:07;4.32;;;0.90;;
74320;SDS011;62738;45.772;4.804;2023-03-14T16:03:37;3.00;;;0.73;;
74320;SDS011;62738;45.772;4.804;2023-03-14T16:06:04;5.75;;;0.90;;
74320;SDS011;62738;45.772;4.804;2023-03-14T16:08:31;2.53;;;0.60;;
74320;SDS011;62738;45.772;4.804;2023-03-14T16:10:58;3.53;;;0.80;;
74320;SDS011;62738;45.772;4.804;2023-03-14T16:13:25;2.35;;;0.77;;
74320;SDS011;62738;45.772;4.804;2023-03-14T16:18:21;5.70;;;1.00;;
74320;SDS011;62738;45.772;4.804;2023-03-14T16:20:55;2.78;;;0.68;;
74320;SDS011;62738;45.772;4.804;2023-03-14T16:23:23;3.08;;;0.80;;